sensor_id;sensor_type;location;lat;lon;timestamp;P1;durP1;ratioP1;P2;durP2;ratioP2
71353;SDS011;59393;51.652;4.864;2022-12-18T00:01:37;42.30;;;14.70;;
71353;SDS011;59393;51.652;4.864;2022-12-18T00:04:04;47.88;;;16.55;;
71353;SDS011;59393;51.652;4.864;2022-12-18T00:06:30;51.67;;;14.97;;
71353;SDS011;59393;51.652;4.864;2022-12-18T00:08:57;56.63;;;17.75;;
71353;SDS011;59393;51.652;4.864;2022-12-18T00:11:25;34.25;;;12.20;;
71353;SDS011;59393;51.652;4.864;2022-12-18T00:13:51;58.72;;;17.35;;
71353;SDS011;59393;51.652;4.864;2022-12-18T00:16:19;49.20;;;16.45;;
71353;SDS011;59393;51.652;4.864;2022-12-18T00:18:46;49.43;;;16.17;;
71353;SDS011;59393;51.652;4.864;2022-12-18T00:21:12;55.35;;;15.55;;
71353;SDS011;59393;51.652;4.864;2022-12-18T00:23:39;50.50;;;15.77;;
71353;SDS011;59393;51.652;4.864;2022-12-18T00:26:07;48.65;;;14.90;;
71353;SDS011;59393;51.652;4.864;2022-12-18T00:28:34;45.33;;;14.65;;
71353;SDS011;59393;51.652;4.864;2022-12-18T00:31:07;47.03;;;14.33;;
71353;SDS011;59393;51.652;4.864;2022-12-18T00:33:34;50.78;;;14.50;;
71353;SDS011;59393;51.652;4.864;2022-12-18T00:36:04;41.53;;;13.95;;
71353;SDS011;59393;51.652;4.864;2022-12-18T00:38:31;48.05;;;14.55;;
71353;SDS011;59393;51.652;4.864;2022-12-18T00:40:57;44.53;;;13.65;;
71353;SDS011;59393;51.652;4.864;2022-12-18T00:43:23;57.63;;;15.13;;
71353;SDS011;59393;51.652;4.864;2022-12-18T00:45:49;45.47;;;15.18;;
71353;SDS011;59393;51.652;4.864;2022-12-18T00:48:15;50.33;;;15.43;;
71353;SDS011;59393;51.652;4.864;2022-12-18T00:50:41;42.00;;;14.15;;
71353;SDS011;59393;51.652;4.864;2022-12-18T00:53:10;65.45;;;19.83;;
71353;SDS011;59393;51.652;4.864;2022-12-18T00:55:37;80.40;;;23.93;;
71353;SDS011;59393;51.652;4.864;2022-12-18T00:58:03;73.80;;;19.52;;
71353;SDS011;59393;51.652;4.864;2022-12-18T01:00:29;49.88;;;15.60;;
71353;SDS011;59393;51.652;4.864;2022-12-18T01:02:55;70.20;;;19.23;;
71353;SDS011;59393;51.652;4.864;2022-12-18T01:05:21;60.30;;;16.38;;
71353;SDS011;59393;51.652;4.864;2022-12-18T01:07:47;62.00;;;17.67;;
71353;SDS011;59393;51.652;4.864;2022-12-18T01:10:13;53.28;;;15.70;;
71353;SDS011;59393;51.652;4.864;2022-12-18T01:12:39;58.58;;;16.88;;
71353;SDS011;59393;51.652;4.864;2022-12-18T01:15:06;69.43;;;20.77;;
71353;SDS011;59393;51.652;4.864;2022-12-18T01:17:32;62.77;;;19.37;;
71353;SDS011;59393;51.652;4.864;2022-12-18T01:19:58;59.13;;;16.83;;
71353;SDS011;59393;51.652;4.864;2022-12-18T01:22:24;65.63;;;19.67;;
71353;SDS011;59393;51.652;4.864;2022-12-18T01:24:50;48.03;;;15.63;;
71353;SDS011;59393;51.652;4.864;2022-12-18T01:27:16;45.80;;;14.37;;
71353;SDS011;59393;51.652;4.864;2022-12-18T01:29:42;60.10;;;16.67;;
71353;SDS011;59393;51.652;4.864;2022-12-18T01:32:08;44.08;;;13.57;;
71353;SDS011;59393;51.652;4.864;2022-12-18T01:34:35;55.85;;;17.90;;
71353;SDS011;59393;51.652;4.864;2022-12-18T01:37:02;45.23;;;15.40;;
71353;SDS011;59393;51.652;4.864;2022-12-18T01:39:28;40.88;;;12.82;;
71353;SDS011;59393;51.652;4.864;2022-12-18T01:41:54;44.63;;;13.18;;
71353;SDS011;59393;51.652;4.864;2022-12-18T01:47:35;23.53;;;9.47;;
71353;SDS011;59393;51.652;4.864;2022-12-18T01:50:00;35.40;;;12.57;;
71353;SDS011;59393;51.652;4.864;2022-12-18T01:52:28;42.40;;;13.68;;
71353;SDS011;59393;51.652;4.864;2022-12-18T01:54:54;50.85;;;17.42;;
71353;SDS011;59393;51.652;4.864;2022-12-18T01:57:21;32.22;;;13.25;;
71353;SDS011;59393;51.652;4.864;2022-12-18T01:59:49;50.60;;;14.93;;
71353;SDS011;59393;51.652;4.864;2022-12-18T02:02:16;41.03;;;12.15;;
71353;SDS011;59393;51.652;4.864;2022-12-18T02:04:42;43.55;;;14.13;;
71353;SDS011;59393;51.652;4.864;2022-12-18T02:07:11;37.85;;;11.77;;
71353;SDS011;59393;51.652;4.864;2022-12-18T02:12:22;28.60;;;10.83;;
71353;SDS011;59393;51.652;4.864;2022-12-18T02:17:19;33.20;;;10.90;;
71353;SDS011;59393;51.652;4.864;2022-12-18T02:25:29;33.33;;;11.73;;
71353;SDS011;59393;51.652;4.864;2022-12-18T02:28:01;27.75;;;9.65;;
71353;SDS011;59393;51.652;4.864;2022-12-18T02:30:29;37.17;;;11.75;;
71353;SDS011;59393;51.652;4.864;2022-12-18T02:32:57;44.15;;;11.85;;
71353;SDS011;59393;51.652;4.864;2022-12-18T02:35:23;30.88;;;9.82;;
71353;SDS011;59393;51.652;4.864;2022-12-18T02:37:50;35.33;;;12.27;;
71353;SDS011;59393;51.652;4.864;2022-12-18T02:40:16;32.13;;;10.43;;
71353;SDS011;59393;51.652;4.864;2022-12-18T02:42:43;32.70;;;11.80;;
71353;SDS011;59393;51.652;4.864;2022-12-18T02:45:09;37.20;;;12.38;;
71353;SDS011;59393;51.652;4.864;2022-12-18T02:47:39;33.80;;;10.65;;
71353;SDS011;59393;51.652;4.864;2022-12-18T02:50:26;28.03;;;9.77;;
71353;SDS011;59393;51.652;4.864;2022-12-18T02:55:33;35.05;;;10.27;;
71353;SDS011;59393;51.652;4.864;2022-12-18T03:00:43;32.97;;;10.75;;
71353;SDS011;59393;51.652;4.864;2022-12-18T03:03:12;33.47;;;12.33;;
71353;SDS011;59393;51.652;4.864;2022-12-18T03:05:41;28.70;;;9.95;;
71353;SDS011;59393;51.652;4.864;2022-12-18T03:08:13;29.23;;;10.07;;
71353;SDS011;59393;51.652;4.864;2022-12-18T03:10:42;36.75;;;10.68;;
71353;SDS011;59393;51.652;4.864;2022-12-18T03:13:16;21.67;;;8.95;;
71353;SDS011;59393;51.652;4.864;2022-12-18T03:15:45;24.27;;;8.20;;
71353;SDS011;59393;51.652;4.864;2022-12-18T03:18:17;24.00;;;8.60;;
71353;SDS011;59393;51.652;4.864;2022-12-18T03:20:44;30.02;;;11.05;;
71353;SDS011;59393;51.652;4.864;2022-12-18T03:23:13;26.75;;;10.32;;
71353;SDS011;59393;51.652;4.864;2022-12-18T03:25:42;26.10;;;9.55;;
71353;SDS011;59393;51.652;4.864;2022-12-18T03:28:13;27.27;;;9.87;;
71353;SDS011;59393;51.652;4.864;2022-12-18T03:30:40;33.38;;;10.13;;
71353;SDS011;59393;51.652;4.864;2022-12-18T03:35:34;21.73;;;7.85;;
71353;SDS011;59393;51.652;4.864;2022-12-18T03:38:00;24.07;;;9.40;;
71353;SDS011;59393;51.652;4.864;2022-12-18T03:40:27;21.90;;;8.95;;
71353;SDS011;59393;51.652;4.864;2022-12-18T03:42:57;33.55;;;8.88;;
71353;SDS011;59393;51.652;4.864;2022-12-18T03:48:13;24.63;;;8.95;;
71353;SDS011;59393;51.652;4.864;2022-12-18T03:53:19;29.30;;;10.57;;
71353;SDS011;59393;51.652;4.864;2022-12-18T03:55:48;27.20;;;9.15;;
71353;SDS011;59393;51.652;4.864;2022-12-18T03:58:16;13.25;;;5.95;;
71353;SDS011;59393;51.652;4.864;2022-12-18T04:00:43;24.48;;;10.68;;
71353;SDS011;59393;51.652;4.864;2022-12-18T04:03:09;21.17;;;7.37;;
71353;SDS011;59393;51.652;4.864;2022-12-18T04:05:36;30.45;;;10.45;;
71353;SDS011;59393;51.652;4.864;2022-12-18T04:08:03;24.88;;;10.05;;
71353;SDS011;59393;51.652;4.864;2022-12-18T04:10:30;24.30;;;9.00;;
71353;SDS011;59393;51.652;4.864;2022-12-18T04:12:56;25.92;;;9.90;;
71353;SDS011;59393;51.652;4.864;2022-12-18T04:15:22;30.97;;;9.10;;
71353;SDS011;59393;51.652;4.864;2022-12-18T04:17:49;25.55;;;8.65;;
71353;SDS011;59393;51.652;4.864;2022-12-18T04:20:16;20.63;;;8.38;;
71353;SDS011;59393;51.652;4.864;2022-12-18T04:22:42;17.63;;;7.95;;
71353;SDS011;59393;51.652;4.864;2022-12-18T04:25:08;18.50;;;7.53;;
71353;SDS011;59393;51.652;4.864;2022-12-18T04:27:34;30.27;;;10.67;;
71353;SDS011;59393;51.652;4.864;2022-12-18T04:30:00;22.60;;;8.48;;
71353;SDS011;59393;51.652;4.864;2022-12-18T04:32:26;35.10;;;9.63;;
71353;SDS011;59393;51.652;4.864;2022-12-18T04:34:52;24.60;;;8.73;;
71353;SDS011;59393;51.652;4.864;2022-12-18T04:37:18;19.03;;;8.10;;
71353;SDS011;59393;51.652;4.864;2022-12-18T04:39:44;21.25;;;7.85;;
71353;SDS011;59393;51.652;4.864;2022-12-18T04:42:10;21.95;;;6.85;;
71353;SDS011;59393;51.652;4.864;2022-12-18T04:44:36;15.13;;;6.25;;
71353;SDS011;59393;51.652;4.864;2022-12-18T04:47:02;23.30;;;8.15;;
71353;SDS011;59393;51.652;4.864;2022-12-18T04:49:28;22.33;;;7.47;;
71353;SDS011;59393;51.652;4.864;2022-12-18T04:51:54;19.92;;;7.10;;
71353;SDS011;59393;51.652;4.864;2022-12-18T04:54:20;16.25;;;6.85;;
71353;SDS011;59393;51.652;4.864;2022-12-18T04:56:46;23.27;;;8.07;;
71353;SDS011;59393;51.652;4.864;2022-12-18T04:59:12;18.35;;;6.85;;
71353;SDS011;59393;51.652;4.864;2022-12-18T05:01:38;20.43;;;8.37;;
71353;SDS011;59393;51.652;4.864;2022-12-18T05:04:04;20.00;;;7.35;;
71353;SDS011;59393;51.652;4.864;2022-12-18T05:06:30;20.55;;;7.68;;
71353;SDS011;59393;51.652;4.864;2022-12-18T05:08:56;16.67;;;7.13;;
71353;SDS011;59393;51.652;4.864;2022-12-18T05:11:22;15.57;;;7.13;;
71353;SDS011;59393;51.652;4.864;2022-12-18T05:13:48;19.95;;;6.00;;
71353;SDS011;59393;51.652;4.864;2022-12-18T05:16:14;22.88;;;7.60;;
71353;SDS011;59393;51.652;4.864;2022-12-18T05:18:40;20.63;;;7.40;;
71353;SDS011;59393;51.652;4.864;2022-12-18T05:21:06;18.80;;;6.78;;
71353;SDS011;59393;51.652;4.864;2022-12-18T05:23:32;17.77;;;6.53;;
71353;SDS011;59393;51.652;4.864;2022-12-18T05:25:59;14.23;;;5.93;;
71353;SDS011;59393;51.652;4.864;2022-12-18T05:28:26;25.30;;;8.18;;
71353;SDS011;59393;51.652;4.864;2022-12-18T05:30:53;12.88;;;5.05;;
71353;SDS011;59393;51.652;4.864;2022-12-18T05:33:20;17.10;;;5.80;;
71353;SDS011;59393;51.652;4.864;2022-12-18T05:35:50;19.38;;;6.75;;
71353;SDS011;59393;51.652;4.864;2022-12-18T05:38:16;14.82;;;6.80;;
71353;SDS011;59393;51.652;4.864;2022-12-18T05:40:42;13.48;;;5.78;;
71353;SDS011;59393;51.652;4.864;2022-12-18T05:43:09;17.50;;;6.70;;
71353;SDS011;59393;51.652;4.864;2022-12-18T05:45:38;25.73;;;8.40;;
71353;SDS011;59393;51.652;4.864;2022-12-18T05:48:05;22.35;;;6.82;;
71353;SDS011;59393;51.652;4.864;2022-12-18T05:50:33;20.20;;;9.30;;
71353;SDS011;59393;51.652;4.864;2022-12-18T05:52:59;16.95;;;7.05;;
71353;SDS011;59393;51.652;4.864;2022-12-18T05:55:25;17.40;;;7.35;;
71353;SDS011;59393;51.652;4.864;2022-12-18T05:57:51;22.15;;;7.57;;
71353;SDS011;59393;51.652;4.864;2022-12-18T06:00:17;21.30;;;8.45;;
71353;SDS011;59393;51.652;4.864;2022-12-18T06:02:46;18.27;;;6.20;;
71353;SDS011;59393;51.652;4.864;2022-12-18T06:05:12;14.47;;;5.50;;
71353;SDS011;59393;51.652;4.864;2022-12-18T06:07:38;21.27;;;6.97;;
71353;SDS011;59393;51.652;4.864;2022-12-18T06:10:04;22.00;;;7.35;;
71353;SDS011;59393;51.652;4.864;2022-12-18T06:12:30;16.95;;;7.07;;
71353;SDS011;59393;51.652;4.864;2022-12-18T06:14:58;16.27;;;6.40;;
71353;SDS011;59393;51.652;4.864;2022-12-18T06:17:27;17.73;;;7.43;;
71353;SDS011;59393;51.652;4.864;2022-12-18T06:19:53;17.70;;;7.18;;
71353;SDS011;59393;51.652;4.864;2022-12-18T06:22:19;14.88;;;4.32;;
71353;SDS011;59393;51.652;4.864;2022-12-18T06:24:45;24.35;;;5.00;;
71353;SDS011;59393;51.652;4.864;2022-12-18T06:27:11;18.13;;;6.47;;
71353;SDS011;59393;51.652;4.864;2022-12-18T06:29:37;15.25;;;5.80;;
71353;SDS011;59393;51.652;4.864;2022-12-18T06:32:03;17.02;;;6.53;;
71353;SDS011;59393;51.652;4.864;2022-12-18T06:34:29;18.70;;;6.65;;
71353;SDS011;59393;51.652;4.864;2022-12-18T06:36:55;16.30;;;5.87;;
71353;SDS011;59393;51.652;4.864;2022-12-18T06:39:21;24.55;;;6.80;;
71353;SDS011;59393;51.652;4.864;2022-12-18T06:41:47;19.33;;;6.25;;
71353;SDS011;59393;51.652;4.864;2022-12-18T06:44:13;20.88;;;7.35;;
71353;SDS011;59393;51.652;4.864;2022-12-18T06:46:39;21.52;;;6.60;;
71353;SDS011;59393;51.652;4.864;2022-12-18T06:49:05;12.32;;;5.10;;
71353;SDS011;59393;51.652;4.864;2022-12-18T06:51:34;15.38;;;5.25;;
71353;SDS011;59393;51.652;4.864;2022-12-18T06:53:59;17.67;;;5.53;;
71353;SDS011;59393;51.652;4.864;2022-12-18T06:56:26;13.57;;;5.85;;
71353;SDS011;59393;51.652;4.864;2022-12-18T06:58:52;11.23;;;5.13;;
71353;SDS011;59393;51.652;4.864;2022-12-18T07:01:18;13.73;;;4.43;;
71353;SDS011;59393;51.652;4.864;2022-12-18T07:03:44;22.67;;;6.50;;
71353;SDS011;59393;51.652;4.864;2022-12-18T07:06:18;14.40;;;5.53;;
71353;SDS011;59393;51.652;4.864;2022-12-18T07:08:45;14.60;;;5.05;;
71353;SDS011;59393;51.652;4.864;2022-12-18T07:11:12;23.77;;;6.90;;
71353;SDS011;59393;51.652;4.864;2022-12-18T07:13:38;13.00;;;5.00;;
71353;SDS011;59393;51.652;4.864;2022-12-18T07:16:05;15.23;;;5.93;;
71353;SDS011;59393;51.652;4.864;2022-12-18T07:18:31;14.67;;;6.17;;
71353;SDS011;59393;51.652;4.864;2022-12-18T07:20:57;20.77;;;6.25;;
71353;SDS011;59393;51.652;4.864;2022-12-18T07:23:23;15.93;;;7.03;;
71353;SDS011;59393;51.652;4.864;2022-12-18T07:25:49;24.67;;;7.75;;
71353;SDS011;59393;51.652;4.864;2022-12-18T07:28:15;21.13;;;7.10;;
71353;SDS011;59393;51.652;4.864;2022-12-18T07:30:41;12.15;;;4.97;;
71353;SDS011;59393;51.652;4.864;2022-12-18T07:33:07;14.52;;;5.65;;
71353;SDS011;59393;51.652;4.864;2022-12-18T07:35:33;12.88;;;5.18;;
71353;SDS011;59393;51.652;4.864;2022-12-18T07:38:00;16.80;;;6.53;;
71353;SDS011;59393;51.652;4.864;2022-12-18T07:40:26;19.53;;;6.03;;
71353;SDS011;59393;51.652;4.864;2022-12-18T07:42:52;15.32;;;5.28;;
71353;SDS011;59393;51.652;4.864;2022-12-18T07:45:18;20.38;;;7.40;;
71353;SDS011;59393;51.652;4.864;2022-12-18T07:47:44;15.52;;;5.38;;
71353;SDS011;59393;51.652;4.864;2022-12-18T07:50:10;12.50;;;5.80;;
71353;SDS011;59393;51.652;4.864;2022-12-18T07:52:38;16.15;;;6.75;;
71353;SDS011;59393;51.652;4.864;2022-12-18T07:55:04;17.88;;;6.38;;
71353;SDS011;59393;51.652;4.864;2022-12-18T07:57:30;15.70;;;5.10;;
71353;SDS011;59393;51.652;4.864;2022-12-18T07:59:56;12.40;;;5.07;;
71353;SDS011;59393;51.652;4.864;2022-12-18T08:02:22;14.03;;;5.87;;
71353;SDS011;59393;51.652;4.864;2022-12-18T08:04:48;9.25;;;4.75;;
71353;SDS011;59393;51.652;4.864;2022-12-18T08:07:14;14.20;;;5.15;;
71353;SDS011;59393;51.652;4.864;2022-12-18T08:09:40;14.15;;;6.13;;
71353;SDS011;59393;51.652;4.864;2022-12-18T08:12:06;12.97;;;5.63;;
71353;SDS011;59393;51.652;4.864;2022-12-18T08:14:32;16.20;;;5.82;;
71353;SDS011;59393;51.652;4.864;2022-12-18T08:16:58;4.10;;;1.75;;
71353;SDS011;59393;51.652;4.864;2022-12-18T08:19:24;18.60;;;6.75;;
71353;SDS011;59393;51.652;4.864;2022-12-18T08:21:50;19.00;;;7.67;;
71353;SDS011;59393;51.652;4.864;2022-12-18T08:24:16;20.58;;;8.18;;
71353;SDS011;59393;51.652;4.864;2022-12-18T08:26:42;30.27;;;10.48;;
71353;SDS011;59393;51.652;4.864;2022-12-18T08:29:08;19.42;;;7.13;;
71353;SDS011;59393;51.652;4.864;2022-12-18T08:31:34;22.37;;;7.80;;
71353;SDS011;59393;51.652;4.864;2022-12-18T08:34:00;25.98;;;9.32;;
71353;SDS011;59393;51.652;4.864;2022-12-18T08:36:26;14.23;;;5.30;;
71353;SDS011;59393;51.652;4.864;2022-12-18T08:38:52;19.90;;;7.50;;
71353;SDS011;59393;51.652;4.864;2022-12-18T08:41:18;17.42;;;5.82;;
71353;SDS011;59393;51.652;4.864;2022-12-18T08:43:44;21.00;;;8.47;;
71353;SDS011;59393;51.652;4.864;2022-12-18T08:46:37;25.98;;;7.65;;
71353;SDS011;59393;51.652;4.864;2022-12-18T08:49:04;17.35;;;6.57;;
71353;SDS011;59393;51.652;4.864;2022-12-18T08:51:30;32.45;;;11.38;;
71353;SDS011;59393;51.652;4.864;2022-12-18T08:53:56;23.83;;;8.98;;
71353;SDS011;59393;51.652;4.864;2022-12-18T08:56:22;21.03;;;8.10;;
71353;SDS011;59393;51.652;4.864;2022-12-18T08:58:51;29.08;;;10.38;;
71353;SDS011;59393;51.652;4.864;2022-12-18T09:01:17;20.40;;;7.43;;
71353;SDS011;59393;51.652;4.864;2022-12-18T09:03:43;22.23;;;7.32;;
71353;SDS011;59393;51.652;4.864;2022-12-18T09:06:09;27.73;;;8.63;;
71353;SDS011;59393;51.652;4.864;2022-12-18T09:08:39;18.33;;;6.57;;
71353;SDS011;59393;51.652;4.864;2022-12-18T09:11:09;19.95;;;8.38;;
71353;SDS011;59393;51.652;4.864;2022-12-18T09:13:37;18.58;;;7.18;;
71353;SDS011;59393;51.652;4.864;2022-12-18T09:16:03;21.77;;;8.10;;
71353;SDS011;59393;51.652;4.864;2022-12-18T09:18:29;16.95;;;6.55;;
71353;SDS011;59393;51.652;4.864;2022-12-18T09:20:55;15.73;;;6.07;;
71353;SDS011;59393;51.652;4.864;2022-12-18T09:23:21;21.35;;;8.93;;
71353;SDS011;59393;51.652;4.864;2022-12-18T09:25:47;22.65;;;7.90;;
71353;SDS011;59393;51.652;4.864;2022-12-18T09:28:14;14.75;;;5.25;;
71353;SDS011;59393;51.652;4.864;2022-12-18T09:30:42;11.97;;;6.07;;
71353;SDS011;59393;51.652;4.864;2022-12-18T09:33:09;18.13;;;6.88;;
71353;SDS011;59393;51.652;4.864;2022-12-18T09:35:38;23.75;;;10.00;;
71353;SDS011;59393;51.652;4.864;2022-12-18T09:38:04;13.77;;;6.90;;
71353;SDS011;59393;51.652;4.864;2022-12-18T09:40:39;15.48;;;7.03;;
71353;SDS011;59393;51.652;4.864;2022-12-18T09:43:09;16.40;;;6.27;;
71353;SDS011;59393;51.652;4.864;2022-12-18T09:45:45;22.23;;;9.88;;
71353;SDS011;59393;51.652;4.864;2022-12-18T09:48:26;16.35;;;6.90;;
71353;SDS011;59393;51.652;4.864;2022-12-18T09:50:55;15.07;;;5.97;;
71353;SDS011;59393;51.652;4.864;2022-12-18T09:53:24;14.55;;;6.97;;
71353;SDS011;59393;51.652;4.864;2022-12-18T09:55:52;21.10;;;8.57;;
71353;SDS011;59393;51.652;4.864;2022-12-18T10:00:55;25.88;;;10.15;;
71353;SDS011;59393;51.652;4.864;2022-12-18T10:03:21;21.73;;;9.27;;
71353;SDS011;59393;51.652;4.864;2022-12-18T10:16:36;17.15;;;7.15;;
71353;SDS011;59393;51.652;4.864;2022-12-18T10:19:15;15.73;;;7.33;;
71353;SDS011;59393;51.652;4.864;2022-12-18T10:21:55;16.10;;;7.22;;
71353;SDS011;59393;51.652;4.864;2022-12-18T10:24:29;24.48;;;9.00;;
71353;SDS011;59393;51.652;4.864;2022-12-18T10:26:59;25.27;;;9.57;;
71353;SDS011;59393;51.652;4.864;2022-12-18T10:29:30;18.95;;;8.98;;
71353;SDS011;59393;51.652;4.864;2022-12-18T10:31:56;13.90;;;6.13;;
71353;SDS011;59393;51.652;4.864;2022-12-18T10:34:23;24.48;;;9.02;;
71353;SDS011;59393;51.652;4.864;2022-12-18T10:36:49;14.18;;;6.55;;
71353;SDS011;59393;51.652;4.864;2022-12-18T10:39:16;22.80;;;8.00;;
71353;SDS011;59393;51.652;4.864;2022-12-18T10:41:42;22.70;;;9.52;;
71353;SDS011;59393;51.652;4.864;2022-12-18T10:44:11;19.27;;;7.53;;
71353;SDS011;59393;51.652;4.864;2022-12-18T10:46:37;16.35;;;6.97;;
71353;SDS011;59393;51.652;4.864;2022-12-18T10:49:17;17.00;;;7.28;;
71353;SDS011;59393;51.652;4.864;2022-12-18T10:51:44;20.45;;;9.93;;
71353;SDS011;59393;51.652;4.864;2022-12-18T10:54:18;12.98;;;5.60;;
71353;SDS011;59393;51.652;4.864;2022-12-18T10:56:48;26.37;;;10.13;;
71353;SDS011;59393;51.652;4.864;2022-12-18T10:59:15;20.60;;;8.32;;
71353;SDS011;59393;51.652;4.864;2022-12-18T11:01:49;19.38;;;7.65;;
71353;SDS011;59393;51.652;4.864;2022-12-18T11:04:16;22.02;;;8.18;;
71353;SDS011;59393;51.652;4.864;2022-12-18T11:06:59;25.73;;;8.98;;
71353;SDS011;59393;51.652;4.864;2022-12-18T11:11:53;21.45;;;8.90;;
71353;SDS011;59393;51.652;4.864;2022-12-18T11:14:26;21.98;;;8.30;;
71353;SDS011;59393;51.652;4.864;2022-12-18T11:16:56;17.92;;;6.38;;
71353;SDS011;59393;51.652;4.864;2022-12-18T11:19:26;17.45;;;7.38;;
71353;SDS011;59393;51.652;4.864;2022-12-18T11:21:54;22.77;;;7.87;;
71353;SDS011;59393;51.652;4.864;2022-12-18T11:24:22;15.45;;;7.15;;
71353;SDS011;59393;51.652;4.864;2022-12-18T11:26:51;19.67;;;7.72;;
71353;SDS011;59393;51.652;4.864;2022-12-18T11:29:18;17.10;;;6.15;;
71353;SDS011;59393;51.652;4.864;2022-12-18T11:31:48;19.15;;;6.70;;
71353;SDS011;59393;51.652;4.864;2022-12-18T11:36:46;19.58;;;7.25;;
71353;SDS011;59393;51.652;4.864;2022-12-18T11:41:59;20.48;;;8.70;;
71353;SDS011;59393;51.652;4.864;2022-12-18T11:44:45;20.77;;;6.55;;
71353;SDS011;59393;51.652;4.864;2022-12-18T11:47:21;17.60;;;7.50;;
71353;SDS011;59393;51.652;4.864;2022-12-18T11:49:50;21.70;;;7.13;;
71353;SDS011;59393;51.652;4.864;2022-12-18T11:52:18;17.20;;;6.72;;
71353;SDS011;59393;51.652;4.864;2022-12-18T11:54:45;18.05;;;7.30;;
71353;SDS011;59393;51.652;4.864;2022-12-18T11:57:24;18.38;;;8.98;;
71353;SDS011;59393;51.652;4.864;2022-12-18T11:59:55;21.20;;;9.30;;
71353;SDS011;59393;51.652;4.864;2022-12-18T12:26:08;12.07;;;4.73;;
71353;SDS011;59393;51.652;4.864;2022-12-18T12:31:12;20.95;;;8.45;;
71353;SDS011;59393;51.652;4.864;2022-12-18T12:34:01;15.32;;;5.28;;
71353;SDS011;59393;51.652;4.864;2022-12-18T12:36:35;17.30;;;6.67;;
71353;SDS011;59393;51.652;4.864;2022-12-18T12:39:07;23.63;;;9.45;;
71353;SDS011;59393;51.652;4.864;2022-12-18T12:41:35;13.02;;;5.70;;
71353;SDS011;59393;51.652;4.864;2022-12-18T12:44:25;19.33;;;8.02;;
71353;SDS011;59393;51.652;4.864;2022-12-18T12:46:55;19.73;;;8.85;;
71353;SDS011;59393;51.652;4.864;2022-12-18T12:49:23;14.83;;;6.70;;
71353;SDS011;59393;51.652;4.864;2022-12-18T12:52:13;17.00;;;6.95;;
71353;SDS011;59393;51.652;4.864;2022-12-18T12:54:38;19.60;;;8.20;;
71353;SDS011;59393;51.652;4.864;2022-12-18T13:04:32;20.77;;;7.95;;
71353;SDS011;59393;51.652;4.864;2022-12-18T13:07:12;18.60;;;7.35;;
71353;SDS011;59393;51.652;4.864;2022-12-18T13:10:40;18.15;;;7.50;;
71353;SDS011;59393;51.652;4.864;2022-12-18T13:12:35;22.70;;;8.52;;
71353;SDS011;59393;51.652;4.864;2022-12-18T13:15:20;20.10;;;9.50;;
71353;SDS011;59393;51.652;4.864;2022-12-18T13:17:47;18.63;;;7.55;;
71353;SDS011;59393;51.652;4.864;2022-12-18T13:20:13;16.50;;;6.38;;
71353;SDS011;59393;51.652;4.864;2022-12-18T13:22:42;18.75;;;6.97;;
71353;SDS011;59393;51.652;4.864;2022-12-18T13:28:00;19.33;;;6.97;;
71353;SDS011;59393;51.652;4.864;2022-12-18T13:36:13;21.77;;;9.13;;
71353;SDS011;59393;51.652;4.864;2022-12-18T13:38:40;20.02;;;7.18;;
71353;SDS011;59393;51.652;4.864;2022-12-18T13:43:42;18.63;;;7.88;;
71353;SDS011;59393;51.652;4.864;2022-12-18T13:46:23;19.85;;;7.75;;
71353;SDS011;59393;51.652;4.864;2022-12-18T13:49:00;22.05;;;9.15;;
71353;SDS011;59393;51.652;4.864;2022-12-18T13:51:26;19.38;;;8.05;;
71353;SDS011;59393;51.652;4.864;2022-12-18T13:53:54;20.30;;;6.67;;
71353;SDS011;59393;51.652;4.864;2022-12-18T13:56:22;18.92;;;8.00;;
71353;SDS011;59393;51.652;4.864;2022-12-18T14:01:36;19.00;;;8.20;;
71353;SDS011;59393;51.652;4.864;2022-12-18T14:04:11;14.15;;;7.38;;
71353;SDS011;59393;51.652;4.864;2022-12-18T14:06:38;15.50;;;6.63;;
71353;SDS011;59393;51.652;4.864;2022-12-18T14:09:04;19.15;;;7.75;;
71353;SDS011;59393;51.652;4.864;2022-12-18T14:11:30;19.60;;;6.32;;
71353;SDS011;59393;51.652;4.864;2022-12-18T14:13:56;17.30;;;7.30;;
71353;SDS011;59393;51.652;4.864;2022-12-18T14:16:22;20.70;;;8.43;;
71353;SDS011;59393;51.652;4.864;2022-12-18T14:18:52;21.50;;;8.03;;
71353;SDS011;59393;51.652;4.864;2022-12-18T14:21:23;22.05;;;8.88;;
71353;SDS011;59393;51.652;4.864;2022-12-18T14:26:35;26.98;;;10.80;;
71353;SDS011;59393;51.652;4.864;2022-12-18T14:29:16;22.25;;;8.60;;
71353;SDS011;59393;51.652;4.864;2022-12-18T14:31:43;19.27;;;7.82;;
71353;SDS011;59393;51.652;4.864;2022-12-18T14:34:16;16.70;;;7.45;;
71353;SDS011;59393;51.652;4.864;2022-12-18T14:36:44;18.13;;;7.63;;
71353;SDS011;59393;51.652;4.864;2022-12-18T14:39:17;22.10;;;8.13;;
71353;SDS011;59393;51.652;4.864;2022-12-18T14:41:43;19.13;;;7.47;;
71353;SDS011;59393;51.652;4.864;2022-12-18T14:44:10;25.10;;;10.02;;
71353;SDS011;59393;51.652;4.864;2022-12-18T14:46:37;22.10;;;9.48;;
71353;SDS011;59393;51.652;4.864;2022-12-18T14:49:21;23.83;;;9.30;;
71353;SDS011;59393;51.652;4.864;2022-12-18T14:51:49;25.45;;;12.30;;
71353;SDS011;59393;51.652;4.864;2022-12-18T14:54:17;16.80;;;6.47;;
71353;SDS011;59393;51.652;4.864;2022-12-18T14:56:44;23.80;;;9.88;;
71353;SDS011;59393;51.652;4.864;2022-12-18T14:59:24;24.60;;;11.05;;
71353;SDS011;59393;51.652;4.864;2022-12-18T15:04:27;25.75;;;11.85;;
71353;SDS011;59393;51.652;4.864;2022-12-18T15:09:29;18.75;;;8.23;;
71353;SDS011;59393;51.652;4.864;2022-12-18T15:11:56;22.08;;;8.40;;
71353;SDS011;59393;51.652;4.864;2022-12-18T15:14:38;22.05;;;8.88;;
71353;SDS011;59393;51.652;4.864;2022-12-18T15:17:15;20.63;;;8.80;;
71353;SDS011;59393;51.652;4.864;2022-12-18T15:19:42;24.77;;;9.30;;
71353;SDS011;59393;51.652;4.864;2022-12-18T15:22:28;26.83;;;11.13;;
71353;SDS011;59393;51.652;4.864;2022-12-18T15:24:55;21.25;;;8.40;;
71353;SDS011;59393;51.652;4.864;2022-12-18T15:27:32;22.45;;;7.95;;
71353;SDS011;59393;51.652;4.864;2022-12-18T15:32:38;21.17;;;10.03;;
71353;SDS011;59393;51.652;4.864;2022-12-18T15:37:34;23.50;;;8.20;;
71353;SDS011;59393;51.652;4.864;2022-12-18T15:40:00;25.00;;;11.00;;
71353;SDS011;59393;51.652;4.864;2022-12-18T15:42:27;22.92;;;9.50;;
71353;SDS011;59393;51.652;4.864;2022-12-18T15:45:12;27.83;;;12.23;;
71353;SDS011;59393;51.652;4.864;2022-12-18T15:47:38;16.92;;;7.03;;
71353;SDS011;59393;51.652;4.864;2022-12-18T15:50:04;23.42;;;10.00;;
71353;SDS011;59393;51.652;4.864;2022-12-18T15:52:35;22.52;;;8.65;;
71353;SDS011;59393;51.652;4.864;2022-12-18T15:55:05;27.27;;;9.18;;
71353;SDS011;59393;51.652;4.864;2022-12-18T15:57:50;22.57;;;10.23;;
71353;SDS011;59393;51.652;4.864;2022-12-18T16:00:16;17.67;;;7.97;;
71353;SDS011;59393;51.652;4.864;2022-12-18T16:02:42;19.15;;;7.28;;
71353;SDS011;59393;51.652;4.864;2022-12-18T16:05:11;21.42;;;9.27;;
71353;SDS011;59393;51.652;4.864;2022-12-18T16:07:40;23.10;;;7.85;;
71353;SDS011;59393;51.652;4.864;2022-12-18T16:10:06;23.70;;;10.70;;
71353;SDS011;59393;51.652;4.864;2022-12-18T16:12:32;23.10;;;9.95;;
71353;SDS011;59393;51.652;4.864;2022-12-18T16:14:58;26.05;;;8.75;;
71353;SDS011;59393;51.652;4.864;2022-12-18T16:17:24;25.42;;;9.40;;
71353;SDS011;59393;51.652;4.864;2022-12-18T16:19:50;21.52;;;9.80;;
71353;SDS011;59393;51.652;4.864;2022-12-18T16:22:20;24.75;;;10.38;;
71353;SDS011;59393;51.652;4.864;2022-12-18T16:24:46;19.05;;;8.00;;
71353;SDS011;59393;51.652;4.864;2022-12-18T16:27:12;18.75;;;7.28;;